createdAt,value
2022-11-15T00:00:27.811Z,8.86
2022-11-15T00:05:29.124Z,8.88
2022-11-15T00:10:30.454Z,8.89
2022-11-15T00:15:31.755Z,8.86
2022-11-15T00:20:35.915Z,8.94
2022-11-15T00:25:37.221Z,9.06
2022-11-15T00:30:38.588Z,9.08
2022-11-15T00:35:39.894Z,9.12
2022-11-15T00:40:41.326Z,9.16
2022-11-15T00:45:42.643Z,9.17
2022-11-15T00:50:44.048Z,9.19
2022-11-15T00:55:45.431Z,9.24
2022-11-15T01:00:46.790Z,9.22
2022-11-15T01:05:48.098Z,9.23
2022-11-15T01:10:49.410Z,9.18
2022-11-15T01:15:50.736Z,9.10
2022-11-15T01:20:52.035Z,8.96
2022-11-15T01:25:53.358Z,8.85
2022-11-15T01:30:54.684Z,8.89
2022-11-15T01:35:56.348Z,8.96
2022-11-15T01:40:57.677Z,9.00
2022-11-15T01:46:03.622Z,9.08
2022-11-15T01:51:07.781Z,9.21
2022-11-15T01:56:10.407Z,9.42
2022-11-15T02:01:13.303Z,9.60
2022-11-15T02:06:15.371Z,9.80
2022-11-15T02:11:16.769Z,9.90
2022-11-15T02:16:36.906Z,9.98
2022-11-15T02:21:44.106Z,10.06
2022-11-15T02:26:45.397Z,10.08
2022-11-15T02:31:56.684Z,10.04
2022-11-15T02:37:04.971Z,9.98
2022-11-15T02:42:32.175Z,9.98
2022-11-15T02:47:35.188Z,10.11
2022-11-15T02:52:36.505Z,10.26
2022-11-15T02:57:46.899Z,10.37
2022-11-15T03:03:00.215Z,10.50
2022-11-15T03:08:18.854Z,10.48
2022-11-15T03:13:42.250Z,10.52
2022-11-15T03:18:46.566Z,10.52
2022-11-15T03:23:48.734Z,10.48
2022-11-15T03:28:55.848Z,10.42
2022-11-15T03:33:59.433Z,10.34
2022-11-15T03:39:03.074Z,10.44
2022-11-15T03:44:04.365Z,10.36
2022-11-15T03:49:09.059Z,10.36
2022-11-15T03:54:12.905Z,10.36
2022-11-15T03:59:14.225Z,10.32
2022-11-15T04:04:15.559Z,10.37
2022-11-15T04:09:16.927Z,10.41
2022-11-15T04:14:18.306Z,10.42
2022-11-15T04:19:38.155Z,10.43
2022-11-15T04:24:39.555Z,10.44
2022-11-15T04:29:40.895Z,10.47
2022-11-15T04:34:42.244Z,10.51
2022-11-15T04:39:44.144Z,10.51
2022-11-15T04:44:45.487Z,10.49
2022-11-15T04:49:46.819Z,10.48
2022-11-15T04:54:48.185Z,10.44
2022-11-15T04:59:49.510Z,10.43
2022-11-15T05:04:50.861Z,10.42
2022-11-15T05:09:52.203Z,10.37
2022-11-15T05:14:53.524Z,10.39
2022-11-15T05:19:54.857Z,10.43
2022-11-15T05:24:56.172Z,10.44
2022-11-15T05:29:57.487Z,10.44
2022-11-15T05:34:58.803Z,10.35
2022-11-15T05:40:00.111Z,10.21
2022-11-15T05:45:02.619Z,10.10
2022-11-15T05:50:04.188Z,10.03
2022-11-15T05:55:06.734Z,10.03
2022-11-15T06:00:10.277Z,10.07
2022-11-15T06:05:11.632Z,10.14
2022-11-15T06:10:12.994Z,10.16
2022-11-15T06:15:14.367Z,10.17
2022-11-15T06:20:15.839Z,10.00
2022-11-15T06:25:17.154Z,9.82
2022-11-15T06:30:18.515Z,9.72
2022-11-15T06:35:19.836Z,9.77
2022-11-15T06:40:21.203Z,9.68
2022-11-15T06:45:22.525Z,9.70
2022-11-15T06:50:24.037Z,9.61
2022-11-15T06:55:25.354Z,9.52
2022-11-15T07:00:26.685Z,9.36
2022-11-15T07:05:28.088Z,9.45
2022-11-15T07:10:29.644Z,9.39
2022-11-15T07:15:30.944Z,9.29
2022-11-15T07:20:32.260Z,9.08
2022-11-15T07:25:35.130Z,8.84
2022-11-15T07:30:38.963Z,8.69
2022-11-15T07:35:43.869Z,8.72
2022-11-15T07:40:45.183Z,9.01
2022-11-15T07:45:46.651Z,9.23
2022-11-15T07:50:48.099Z,9.39
2022-11-15T07:55:49.499Z,9.63
2022-11-15T08:00:50.842Z,10.06
2022-11-15T08:05:52.675Z,10.28
2022-11-15T08:10:54.090Z,10.93
2022-11-15T08:16:02.346Z,11.50
2022-11-15T08:21:04.208Z,11.85
2022-11-15T08:26:05.858Z,12.00
2022-11-15T08:31:07.199Z,12.19
2022-11-15T08:36:12.665Z,11.96
2022-11-15T08:41:16.890Z,12.65
2022-11-15T08:46:19.257Z,12.88
2022-11-15T08:51:20.652Z,13.25
2022-11-15T08:56:22.014Z,13.35
2022-11-15T09:01:23.548Z,13.79
2022-11-15T09:06:24.975Z,14.41
2022-11-15T09:11:27.459Z,14.31
2022-11-15T09:16:28.833Z,14.62
2022-11-15T09:21:31.105Z,14.96
2022-11-15T09:26:32.528Z,14.36
2022-11-15T09:31:33.912Z,15.19
2022-11-15T09:36:35.253Z,16.31
2022-11-15T09:41:36.581Z,16.84
2022-11-15T09:46:43.876Z,16.38
2022-11-15T09:51:50.835Z,16.26
2022-11-15T09:56:52.763Z,17.33
2022-11-15T10:01:57.118Z,17.29
2022-11-15T10:07:15.393Z,16.67
2022-11-15T10:12:16.955Z,16.25
2022-11-15T10:17:27.592Z,16.05
2022-11-15T10:22:45.262Z,16.42
2022-11-15T10:27:51.245Z,16.20
2022-11-15T10:32:52.545Z,16.58
2022-11-15T10:38:05.039Z,16.76
2022-11-15T10:43:06.404Z,18.23
2022-11-15T10:48:13.626Z,17.25
2022-11-15T10:53:18.038Z,16.07
2022-11-15T10:58:22.412Z,15.18
2022-11-15T11:03:23.702Z,15.42
2022-11-15T11:08:25.397Z,14.49
2022-11-15T11:13:32.509Z,14.14
2022-11-15T11:18:48.518Z,14.65
2022-11-15T11:23:54.323Z,15.50
2022-11-15T11:29:07.739Z,15.58
2022-11-15T11:34:28.072Z,16.13
2022-11-15T11:39:55.119Z,14.94
2022-11-15T11:44:59.216Z,14.54
2022-11-15T11:50:01.793Z,14.59
2022-11-15T11:55:22.086Z,14.73
2022-11-15T12:00:24.263Z,14.60
2022-11-15T12:05:31.843Z,14.58
2022-11-15T12:10:34.381Z,14.13
2022-11-15T12:15:43.388Z,14.02
2022-11-15T12:20:54.848Z,13.80
2022-11-15T12:26:07.686Z,13.80
2022-11-15T12:31:27.842Z,14.01
2022-11-15T12:36:33.208Z,14.08
2022-11-15T12:41:35.758Z,14.34
2022-11-15T12:46:39.908Z,15.05
2022-11-15T12:51:44.316Z,15.76
2022-11-15T12:56:45.639Z,15.08
2022-11-15T13:01:46.988Z,14.63
2022-11-15T13:06:52.718Z,14.37
2022-11-15T13:11:54.288Z,14.40
2022-11-15T13:17:01.733Z,14.95
2022-11-15T13:22:24.584Z,15.08
2022-11-15T13:27:26.284Z,14.99
2022-11-15T13:32:27.690Z,15.25
2022-11-15T13:37:31.147Z,14.61
2022-11-15T13:42:32.455Z,14.47
2022-11-15T13:47:33.926Z,14.28
2022-11-15T13:52:37.883Z,14.12
2022-11-15T13:57:39.197Z,14.03
2022-11-15T14:02:40.789Z,13.82
2022-11-15T14:07:53.280Z,13.76
2022-11-15T14:12:54.893Z,13.74
2022-11-15T14:17:56.373Z,13.72
2022-11-15T14:22:58.747Z,13.61
2022-11-15T14:28:09.020Z,13.47
2022-11-15T14:33:30.165Z,13.42
2022-11-15T14:38:31.833Z,13.35
2022-11-15T14:43:33.426Z,13.22
2022-11-15T14:48:35.688Z,13.15
2022-11-15T14:53:37.031Z,13.10
2022-11-15T14:58:38.387Z,13.03
2022-11-15T15:03:39.776Z,12.89
2022-11-15T15:08:41.712Z,12.93
2022-11-15T15:13:43.125Z,12.85
2022-11-15T15:18:44.464Z,12.72
2022-11-15T15:23:45.805Z,12.69
2022-11-15T15:28:49.413Z,12.62
2022-11-15T15:33:50.759Z,12.59
2022-11-15T15:38:52.185Z,12.53
2022-11-15T15:43:53.486Z,12.50
2022-11-15T15:48:54.901Z,12.41
2022-11-15T15:53:59.021Z,12.35
2022-11-15T15:59:00.335Z,12.34
2022-11-15T16:04:01.688Z,12.38
2022-11-15T16:09:19.589Z,12.37
2022-11-15T16:14:21.311Z,12.33
2022-11-15T16:19:24.477Z,12.29
2022-11-15T16:24:25.783Z,12.32
2022-11-15T16:29:27.371Z,12.39
2022-11-15T16:34:31.117Z,12.36
2022-11-15T16:39:34.341Z,12.45
2022-11-15T16:44:35.755Z,12.42
2022-11-15T16:49:37.087Z,12.43
2022-11-15T16:54:38.475Z,12.39
2022-11-15T16:59:39.871Z,12.42
2022-11-15T17:04:41.244Z,12.36
2022-11-15T17:09:42.577Z,12.33
2022-11-15T17:14:46.011Z,12.28
2022-11-15T17:19:47.311Z,12.28
2022-11-15T17:24:48.673Z,12.28
2022-11-15T17:29:49.983Z,12.28
2022-11-15T17:34:51.333Z,12.23
2022-11-15T17:39:52.636Z,12.20
2022-11-15T17:44:53.952Z,12.18
2022-11-15T17:49:55.310Z,12.21
2022-11-15T17:54:56.668Z,12.22
2022-11-15T17:59:57.989Z,12.19
2022-11-15T18:04:59.305Z,12.11
2022-11-15T18:10:00.646Z,12.03
2022-11-15T18:15:02.036Z,12.01
2022-11-15T18:20:03.863Z,11.82
2022-11-15T18:25:05.406Z,11.69
2022-11-15T18:30:07.052Z,11.53
2022-11-15T18:35:09.201Z,11.50
2022-11-15T18:40:10.721Z,11.40
2022-11-15T18:45:12.105Z,11.38
2022-11-15T18:50:13.431Z,11.31
2022-11-15T18:55:14.750Z,11.27
2022-11-15T19:00:16.386Z,11.29
2022-11-15T19:05:21.533Z,11.30
2022-11-15T19:10:22.855Z,11.28
2022-11-15T19:15:24.183Z,11.38
2022-11-15T19:20:25.570Z,11.27
2022-11-15T19:25:28.764Z,11.30
2022-11-15T19:30:30.071Z,11.31
2022-11-15T19:35:31.536Z,11.30
2022-11-15T19:40:33.228Z,11.32
2022-11-15T19:45:34.530Z,11.31
2022-11-15T19:50:37.058Z,11.33
2022-11-15T19:55:38.376Z,11.41
2022-11-15T20:00:39.701Z,11.39
2022-11-15T20:05:41.037Z,11.36
2022-11-15T20:10:43.416Z,11.29
2022-11-15T20:15:44.716Z,11.27
2022-11-15T20:20:46.199Z,11.25
2022-11-15T20:25:47.746Z,11.28
2022-11-15T20:30:51.383Z,11.33
2022-11-15T20:35:53.215Z,11.33
2022-11-15T20:40:59.001Z,11.33
2022-11-15T20:46:01.400Z,11.30
2022-11-15T20:51:04.824Z,11.24
2022-11-15T20:56:17.961Z,11.22
2022-11-15T21:01:23.519Z,11.16
2022-11-15T21:06:26.026Z,11.06
2022-11-15T21:11:45.840Z,11.06
2022-11-15T21:16:47.167Z,11.00
2022-11-15T21:21:48.690Z,10.98
2022-11-15T21:26:50.847Z,10.91
2022-11-15T21:31:53.455Z,10.92
2022-11-15T21:36:54.845Z,10.90
2022-11-15T21:41:56.750Z,10.84
2022-11-15T21:46:58.063Z,10.79
2022-11-15T21:51:59.377Z,10.77
2022-11-15T21:57:00.682Z,10.72
2022-11-15T22:02:17.070Z,10.73
2022-11-15T22:07:18.566Z,10.71
2022-11-15T22:12:19.951Z,10.66
2022-11-15T22:17:21.274Z,10.54
2022-11-15T22:22:22.602Z,10.54
2022-11-15T22:27:23.940Z,10.50
2022-11-15T22:32:25.281Z,10.48
2022-11-15T22:37:26.682Z,10.47
2022-11-15T22:42:28.148Z,10.46
2022-11-15T22:47:29.536Z,10.39
2022-11-15T22:52:30.878Z,10.37
2022-11-15T22:57:32.608Z,10.35
2022-11-15T23:02:34.001Z,10.33
2022-11-15T23:07:35.356Z,10.30
2022-11-15T23:12:55.417Z,10.32
2022-11-15T23:17:56.739Z,10.28
2022-11-15T23:22:58.985Z,10.28
2022-11-15T23:28:02.213Z,10.26
2022-11-15T23:33:22.033Z,10.25
2022-11-15T23:38:23.359Z,10.20
2022-11-15T23:43:24.778Z,10.26
2022-11-15T23:48:27.435Z,10.23
2022-11-15T23:53:28.751Z,10.24
2022-11-15T23:58:30.260Z,10.25
